createdAt,value
2022-08-17T00:00:13.612Z,57
2022-08-17T00:15:02.605Z,57
2022-08-17T00:30:05.190Z,57
2022-08-17T00:45:03.231Z,57
2022-08-17T01:00:06.046Z,57
2022-08-17T01:15:03.236Z,57
2022-08-17T01:30:59.393Z,57
2022-08-17T01:45:02.514Z,57
2022-08-17T02:00:05.878Z,57
2022-08-17T02:15:03.666Z,57
2022-08-17T02:31:03.088Z,58
2022-08-17T02:45:02.674Z,58
2022-08-17T03:00:05.062Z,58
2022-08-17T03:15:04.761Z,58
2022-08-17T03:30:05.462Z,58
2022-08-17T03:45:02.599Z,58
2022-08-17T04:00:04.677Z,58
2022-08-17T04:15:02.631Z,58
2022-08-17T04:30:07.964Z,58
2022-08-17T04:45:02.853Z,58
2022-08-17T05:00:06.109Z,58
2022-08-17T05:15:03.363Z,58
2022-08-17T05:30:06.052Z,59
2022-08-17T05:45:02.697Z,59
2022-08-17T06:00:10.100Z,59
2022-08-17T06:15:02.849Z,60
2022-08-17T06:30:04.734Z,60
2022-08-17T06:45:02.959Z,61
2022-08-17T07:00:09.038Z,61
2022-08-17T07:15:02.882Z,61
2022-08-17T07:30:11.457Z,62
2022-08-17T07:45:03.226Z,62
2022-08-17T08:00:04.844Z,62
2022-08-17T08:15:03.912Z,62
2022-08-17T08:30:04.368Z,62
2022-08-17T08:45:05.544Z,62
2022-08-17T09:00:05.880Z,62
2022-08-17T09:15:02.659Z,62
2022-08-17T09:30:03.086Z,62
2022-08-17T09:45:03.424Z,61
2022-08-17T10:00:07.598Z,61
2022-08-17T10:15:09.501Z,61
2022-08-17T10:30:04.534Z,61
2022-08-17T10:45:02.278Z,61
2022-08-17T11:00:10.759Z,61
2022-08-17T11:15:03.882Z,61
2022-08-17T11:30:04.663Z,61
2022-08-17T11:45:03.656Z,61
2022-08-17T12:00:07.216Z,61
2022-08-17T12:15:12.285Z,61
2022-08-17T12:30:06.148Z,61
2022-08-17T12:45:02.470Z,60
2022-08-17T13:00:05.485Z,60
2022-08-17T13:15:03.364Z,60
2022-08-17T13:30:06.627Z,60
2022-08-17T13:45:36.412Z,60
2022-08-17T14:00:06.298Z,60
2022-08-17T14:15:04.755Z,60
2022-08-17T14:30:05.958Z,59
2022-08-17T14:45:04.382Z,59
2022-08-17T15:00:04.337Z,59
2022-08-17T15:15:05.470Z,58
2022-08-17T15:30:07.428Z,58
2022-08-17T15:45:02.962Z,58
2022-08-17T16:00:07.439Z,58
2022-08-17T16:15:03.177Z,57
2022-08-17T16:30:03.710Z,57
2022-08-17T16:45:03.315Z,57
2022-08-17T17:00:04.930Z,57
2022-08-17T17:15:02.745Z,57
2022-08-17T17:30:07.053Z,57
2022-08-17T17:45:03.314Z,57
2022-08-17T18:00:04.595Z,57
2022-08-17T18:15:03.707Z,57
2022-08-17T18:30:09.485Z,57
2022-08-17T18:45:02.901Z,58
2022-08-17T19:00:04.623Z,58
2022-08-17T19:15:02.661Z,58
2022-08-17T19:30:08.666Z,58
2022-08-17T19:45:03.911Z,59
2022-08-17T20:00:04.388Z,59
2022-08-17T20:15:03.576Z,59
2022-08-17T20:30:05.915Z,60
2022-08-17T20:45:03.506Z,60
2022-08-17T21:00:04.726Z,60
2022-08-17T21:15:02.577Z,60
2022-08-17T21:30:10.160Z,61
2022-08-17T21:45:02.361Z,61
2022-08-17T22:00:03.572Z,61
2022-08-17T22:15:02.230Z,62
2022-08-17T22:30:04.724Z,62
2022-08-17T22:45:02.606Z,64
2022-08-17T23:00:04.620Z,65
2022-08-17T23:15:02.772Z,66
2022-08-17T23:30:04.367Z,66
2022-08-17T23:45:02.993Z,67
